createdAt,value
2023-02-01T00:00:07.661Z,0
2023-02-01T00:03:07.674Z,0
2023-02-01T00:06:07.638Z,0
2023-02-01T00:09:07.802Z,0
2023-02-01T00:12:07.651Z,0
2023-02-01T00:15:07.681Z,0
2023-02-01T00:18:07.662Z,0
2023-02-01T00:21:07.673Z,0
2023-02-01T00:24:07.723Z,0
2023-02-01T00:27:07.643Z,0
2023-02-01T00:30:07.752Z,0
2023-02-01T00:33:07.628Z,0
2023-02-01T00:36:07.613Z,0
2023-02-01T00:39:07.761Z,0
2023-02-01T00:42:07.672Z,0
2023-02-01T00:45:07.668Z,0
2023-02-01T00:48:07.710Z,0
2023-02-01T00:51:07.631Z,0
2023-02-01T00:54:07.667Z,0
2023-02-01T00:57:07.736Z,0
2023-02-01T01:00:07.775Z,0
2023-02-01T01:03:07.663Z,0
2023-02-01T01:06:07.640Z,0
2023-02-01T01:09:07.653Z,0
2023-02-01T01:12:07.664Z,0
2023-02-01T01:15:07.667Z,0
2023-02-01T01:18:07.705Z,0
2023-02-01T01:21:07.634Z,0
2023-02-01T01:24:07.641Z,0
2023-02-01T01:27:07.676Z,0
2023-02-01T01:30:07.616Z,0
2023-02-01T01:33:07.612Z,0
2023-02-01T01:36:07.723Z,0
2023-02-01T01:39:07.682Z,0
2023-02-01T01:42:07.672Z,0
2023-02-01T01:45:07.642Z,0
2023-02-01T01:48:07.668Z,0
2023-02-01T01:51:07.589Z,0
2023-02-01T01:54:07.696Z,0
2023-02-01T01:57:07.935Z,0
2023-02-01T02:00:07.803Z,0
2023-02-01T02:03:07.646Z,0
2023-02-01T02:06:07.634Z,0
2023-02-01T02:09:11.041Z,0
2023-02-01T02:12:07.721Z,0
2023-02-01T02:15:07.679Z,0
2023-02-01T02:18:07.685Z,0
2023-02-01T02:21:07.746Z,0
2023-02-01T02:24:07.674Z,0
2023-02-01T02:27:07.627Z,0
2023-02-01T02:30:07.691Z,0
2023-02-01T02:33:07.649Z,0
2023-02-01T02:36:07.654Z,0
2023-02-01T02:39:07.734Z,0
2023-02-01T02:42:07.642Z,0
2023-02-01T02:45:07.681Z,0
2023-02-01T02:48:07.676Z,0
2023-02-01T02:51:07.654Z,0
2023-02-01T02:54:07.689Z,0
2023-02-01T02:57:07.754Z,0
2023-02-01T03:00:07.840Z,0
2023-02-01T03:03:07.708Z,0
2023-02-01T03:06:07.677Z,0
2023-02-01T03:09:07.683Z,0
2023-02-01T03:12:07.728Z,0
2023-02-01T03:15:08.021Z,0
2023-02-01T03:18:08.323Z,0
2023-02-01T03:21:07.794Z,0
2023-02-01T03:24:07.752Z,0
2023-02-01T03:27:07.615Z,0
2023-02-01T03:30:07.827Z,0
2023-02-01T03:33:07.679Z,0
2023-02-01T03:36:07.616Z,0
2023-02-01T03:39:07.588Z,0
2023-02-01T03:42:07.633Z,0
2023-02-01T03:45:07.696Z,0
2023-02-01T03:48:07.657Z,0
2023-02-01T03:51:07.640Z,0
2023-02-01T03:54:07.678Z,0
2023-02-01T03:57:07.629Z,0
2023-02-01T04:00:07.625Z,0
2023-02-01T04:03:07.639Z,0
2023-02-01T04:06:07.689Z,0
2023-02-01T04:09:07.671Z,0
2023-02-01T04:12:07.700Z,0
2023-02-01T04:15:07.632Z,0
2023-02-01T04:18:07.722Z,0
2023-02-01T04:21:07.663Z,0
2023-02-01T04:24:07.660Z,0
2023-02-01T04:27:07.716Z,0
2023-02-01T04:30:07.878Z,0
2023-02-01T04:33:07.671Z,0
2023-02-01T04:36:07.613Z,0
2023-02-01T04:39:07.661Z,0
2023-02-01T04:42:07.650Z,0
2023-02-01T04:45:07.647Z,0
2023-02-01T04:48:07.765Z,0
2023-02-01T04:51:07.834Z,0
2023-02-01T04:54:07.621Z,0
2023-02-01T04:57:07.639Z,0
2023-02-01T05:00:07.803Z,0
2023-02-01T05:03:07.615Z,0
2023-02-01T05:06:07.679Z,0
2023-02-01T05:09:07.744Z,0
2023-02-01T05:12:07.727Z,0
2023-02-01T05:15:07.668Z,0
2023-02-01T05:18:07.662Z,0
2023-02-01T05:21:07.700Z,0
2023-02-01T05:24:07.684Z,0
2023-02-01T05:27:07.698Z,0
2023-02-01T05:30:07.828Z,0
2023-02-01T05:33:07.625Z,0
2023-02-01T05:36:09.215Z,0
2023-02-01T05:39:07.699Z,0
2023-02-01T05:42:07.712Z,0
2023-02-01T05:45:07.745Z,0
2023-02-01T05:48:07.668Z,0
2023-02-01T05:51:07.675Z,0
2023-02-01T05:54:07.757Z,0
2023-02-01T05:57:07.679Z,0
2023-02-01T06:00:07.867Z,0
2023-02-01T06:03:07.935Z,0
2023-02-01T06:06:07.667Z,0
2023-02-01T06:09:07.756Z,0
2023-02-01T06:12:07.739Z,0
2023-02-01T06:15:07.746Z,0
2023-02-01T06:18:07.681Z,0
2023-02-01T06:21:07.747Z,0
2023-02-01T06:24:07.677Z,0
2023-02-01T06:27:07.696Z,0
2023-02-01T06:30:07.664Z,0
2023-02-01T06:33:07.651Z,3
2023-02-01T06:36:07.728Z,7
2023-02-01T06:39:07.801Z,7
2023-02-01T06:42:07.644Z,23
2023-02-01T06:45:07.693Z,23
2023-02-01T06:48:07.642Z,33
2023-02-01T06:51:07.753Z,57
2023-02-01T06:54:07.684Z,53
2023-02-01T06:57:07.708Z,110
2023-02-01T07:00:07.776Z,150
2023-02-01T07:03:07.753Z,117
2023-02-01T07:06:07.944Z,90
2023-02-01T07:09:07.673Z,80
2023-02-01T07:12:07.811Z,93
2023-02-01T07:15:07.832Z,120
2023-02-01T07:18:07.779Z,137
2023-02-01T07:21:07.768Z,170
2023-02-01T07:24:07.840Z,293
2023-02-01T07:27:07.725Z,480
2023-02-01T07:30:07.762Z,730
2023-02-01T07:33:07.735Z,867
2023-02-01T07:36:07.829Z,950
2023-02-01T07:39:07.729Z,1087
2023-02-01T07:42:07.740Z,1747
2023-02-01T07:45:28.185Z,2137
2023-02-01T07:48:07.997Z,1577
2023-02-01T07:51:07.812Z,1537
2023-02-01T07:54:07.785Z,1847
2023-02-01T07:57:07.730Z,1427
2023-02-01T08:00:08.227Z,857
2023-02-01T08:03:07.777Z,917
2023-02-01T08:06:07.761Z,1733
2023-02-01T08:09:07.955Z,3707
2023-02-01T08:12:07.852Z,1977
2023-02-01T08:15:07.864Z,1437
2023-02-01T08:18:07.820Z,2320
2023-02-01T08:21:07.728Z,2787
2023-02-01T08:24:07.734Z,2987
2023-02-01T08:27:07.687Z,3420
2023-02-01T08:30:07.840Z,5827
2023-02-01T08:33:07.722Z,8323
2023-02-01T08:36:07.801Z,9037
2023-02-01T08:39:08.039Z,6613
2023-02-01T08:42:07.722Z,2430
2023-02-01T08:45:07.642Z,2533
2023-02-01T08:48:07.702Z,3873
2023-02-01T08:51:07.683Z,6540
2023-02-01T08:54:07.722Z,3687
2023-02-01T08:57:07.826Z,3333
2023-02-01T09:00:07.774Z,5430
2023-02-01T09:03:07.775Z,5887
2023-02-01T09:06:07.747Z,3360
2023-02-01T09:09:07.732Z,6730
2023-02-01T09:12:07.807Z,7483
2023-02-01T09:15:08.297Z,4030
2023-02-01T09:18:07.843Z,5413
2023-02-01T09:21:07.765Z,4907
2023-02-01T09:24:07.787Z,6307
2023-02-01T09:27:07.938Z,6830
2023-02-01T09:30:07.840Z,10787
2023-02-01T09:33:07.754Z,8793
2023-02-01T09:36:07.769Z,8507
2023-02-01T09:39:07.669Z,10440
2023-02-01T09:42:07.833Z,14100
2023-02-01T09:45:07.712Z,9643
2023-02-01T09:48:07.712Z,8960
2023-02-01T09:51:07.737Z,9997
2023-02-01T09:54:07.807Z,11407
2023-02-01T09:57:07.786Z,14633
2023-02-01T10:00:07.891Z,8960
2023-02-01T10:03:07.760Z,6400
2023-02-01T10:06:08.024Z,4487
2023-02-01T10:09:07.760Z,4857
2023-02-01T10:12:07.749Z,5500
2023-02-01T10:15:07.769Z,4533
2023-02-01T10:18:07.717Z,4647
2023-02-01T10:21:07.723Z,6063
2023-02-01T10:24:23.471Z,12433
2023-02-01T10:27:07.758Z,13110
2023-02-01T10:30:07.990Z,11637
2023-02-01T10:33:07.726Z,10337
2023-02-01T10:36:07.842Z,11870
2023-02-01T10:39:07.848Z,14013
2023-02-01T10:42:07.755Z,15067
2023-02-01T10:45:07.718Z,13483
2023-02-01T10:48:07.781Z,13333
2023-02-01T10:51:07.744Z,12153
2023-02-01T10:54:07.741Z,10353
2023-02-01T10:57:08.376Z,13770
2023-02-01T11:00:07.794Z,12373
2023-02-01T11:03:08.076Z,12547
2023-02-01T11:06:07.712Z,10773
2023-02-01T11:09:07.819Z,9257
2023-02-01T11:12:07.877Z,6483
2023-02-01T11:15:07.728Z,4840
2023-02-01T11:18:07.657Z,5837
2023-02-01T11:21:07.697Z,6420
2023-02-01T11:24:07.864Z,7180
2023-02-01T11:27:16.003Z,7427
2023-02-01T11:30:07.818Z,5067
2023-02-01T11:33:09.835Z,5643
2023-02-01T11:36:07.827Z,6217
2023-02-01T11:39:09.480Z,6803
2023-02-01T11:42:07.825Z,5347
2023-02-01T11:45:09.543Z,5780
2023-02-01T11:48:10.097Z,4763
2023-02-01T11:51:09.993Z,3187
2023-02-01T11:54:07.879Z,2993
2023-02-01T11:57:10.242Z,3413
2023-02-01T12:00:07.853Z,3867
2023-02-01T12:03:07.969Z,5973
2023-02-01T12:06:07.773Z,6400
2023-02-01T12:09:07.746Z,10133
2023-02-01T12:12:07.722Z,9080
2023-02-01T12:15:07.721Z,8773
2023-02-01T12:18:07.834Z,11160
2023-02-01T12:21:07.696Z,9430
2023-02-01T12:24:07.725Z,11907
2023-02-01T12:27:07.704Z,15017
2023-02-01T12:30:07.854Z,13947
2023-02-01T12:33:07.860Z,16540
2023-02-01T12:36:07.662Z,15037
2023-02-01T12:39:07.731Z,9813
2023-02-01T12:42:07.718Z,11757
2023-02-01T12:45:07.762Z,12123
2023-02-01T12:48:07.680Z,9717
2023-02-01T12:51:07.759Z,6340
2023-02-01T12:54:07.752Z,7630
2023-02-01T12:57:07.800Z,6947
2023-02-01T13:00:07.841Z,6063
2023-02-01T13:03:07.731Z,3537
2023-02-01T13:06:07.790Z,3487
2023-02-01T13:09:07.900Z,2133
2023-02-01T13:12:07.699Z,2277
2023-02-01T13:15:07.744Z,3037
2023-02-01T13:18:07.800Z,3113
2023-02-01T13:21:07.684Z,5797
2023-02-01T13:24:07.715Z,9470
2023-02-01T13:27:07.768Z,10447
2023-02-01T13:30:07.946Z,6183
2023-02-01T13:36:07.775Z,4497
2023-02-01T13:39:07.808Z,3087
2023-02-01T13:42:07.837Z,3120
2023-02-01T13:45:07.834Z,2273
2023-02-01T13:48:07.809Z,1687
2023-02-01T13:51:07.724Z,1363
2023-02-01T13:54:07.792Z,680
2023-02-01T13:57:07.668Z,537
2023-02-01T14:00:07.941Z,467
2023-02-01T14:03:07.762Z,323
2023-02-01T14:06:07.707Z,330
2023-02-01T14:09:07.667Z,350
2023-02-01T14:12:07.697Z,267
2023-02-01T14:15:07.712Z,230
2023-02-01T14:18:07.775Z,503
2023-02-01T14:21:24.541Z,360
2023-02-01T14:24:07.819Z,357
2023-02-01T14:30:07.725Z,640
2023-02-01T14:33:07.601Z,620
2023-02-01T14:36:07.640Z,313
2023-02-01T14:39:07.642Z,397
2023-02-01T14:42:09.472Z,337
2023-02-01T14:45:08.298Z,457
2023-02-01T14:48:07.579Z,553
2023-02-01T14:51:07.536Z,457
2023-02-01T14:54:07.540Z,623
2023-02-01T14:57:07.601Z,500
2023-02-01T15:00:07.702Z,337
2023-02-01T15:03:07.836Z,770
2023-02-01T15:06:07.698Z,1070
2023-02-01T15:09:07.608Z,1460
2023-02-01T15:12:07.662Z,2213
2023-02-01T15:15:07.533Z,3010
2023-02-01T15:18:07.596Z,3980
2023-02-01T15:21:37.213Z,2700
2023-02-01T15:24:07.580Z,1897
2023-02-01T15:27:07.531Z,1447
2023-02-01T15:30:07.741Z,1360
2023-02-01T15:33:07.698Z,1167
2023-02-01T15:36:07.672Z,1070
2023-02-01T15:39:07.554Z,993
2023-02-01T15:42:07.600Z,940
2023-02-01T15:45:07.585Z,857
2023-02-01T15:48:07.637Z,747
2023-02-01T15:51:07.639Z,640
2023-02-01T15:54:07.604Z,533
2023-02-01T15:57:07.571Z,397
2023-02-01T16:00:08.403Z,303
2023-02-01T16:03:08.215Z,287
2023-02-01T16:06:07.552Z,237
2023-02-01T16:09:07.540Z,180
2023-02-01T16:12:07.651Z,133
2023-02-01T16:15:07.548Z,93
2023-02-01T16:18:07.631Z,63
2023-02-01T16:21:07.537Z,40
2023-02-01T16:24:09.126Z,23
2023-02-01T16:27:07.473Z,13
2023-02-01T16:30:07.541Z,7
2023-02-01T16:33:07.771Z,3
2023-02-01T16:36:07.544Z,3
2023-02-01T16:39:07.519Z,3
2023-02-01T16:42:09.969Z,0
2023-02-01T16:45:07.541Z,0
2023-02-01T16:48:07.521Z,0
2023-02-01T16:51:07.655Z,0
2023-02-01T16:54:07.724Z,0
2023-02-01T16:57:07.487Z,0
2023-02-01T17:00:29.341Z,0
2023-02-01T17:03:07.616Z,0
2023-02-01T17:06:07.470Z,0
2023-02-01T17:09:07.584Z,0
2023-02-01T17:12:07.550Z,0
2023-02-01T17:15:07.507Z,0
2023-02-01T17:18:07.638Z,0
2023-02-01T17:21:08.343Z,0
2023-02-01T17:24:07.542Z,0
2023-02-01T17:27:07.626Z,0
2023-02-01T17:30:07.963Z,0
2023-02-01T17:33:28.390Z,0
2023-02-01T17:36:07.496Z,0
2023-02-01T17:39:13.367Z,0
2023-02-01T17:42:07.471Z,0
2023-02-01T17:45:07.524Z,0
2023-02-01T17:48:07.507Z,0
2023-02-01T17:51:07.533Z,0
2023-02-01T17:54:07.454Z,0
2023-02-01T17:57:07.533Z,0
2023-02-01T18:00:07.591Z,0
2023-02-01T18:03:07.579Z,0
2023-02-01T18:06:07.515Z,0
2023-02-01T18:09:08.057Z,0
2023-02-01T18:12:07.609Z,0
2023-02-01T18:15:07.591Z,0
2023-02-01T18:18:07.591Z,0
2023-02-01T18:21:07.463Z,0
2023-02-01T18:24:07.541Z,0
2023-02-01T18:27:07.452Z,0
2023-02-01T18:30:07.662Z,0
2023-02-01T18:33:07.503Z,0
2023-02-01T18:36:07.559Z,0
2023-02-01T18:39:07.469Z,0
2023-02-01T18:42:07.533Z,0
2023-02-01T18:45:07.556Z,0
2023-02-01T18:48:07.522Z,0
2023-02-01T18:51:07.515Z,0
2023-02-01T18:54:07.434Z,0
2023-02-01T18:57:07.568Z,0
2023-02-01T19:00:07.565Z,0
2023-02-01T19:03:08.195Z,0
2023-02-01T19:06:07.526Z,0
2023-02-01T19:09:07.503Z,0
2023-02-01T19:12:07.571Z,0
2023-02-01T19:15:07.485Z,0
2023-02-01T19:18:07.542Z,0
2023-02-01T19:21:07.637Z,0
2023-02-01T19:24:07.570Z,0
2023-02-01T19:27:07.683Z,0
2023-02-01T19:30:07.529Z,0
2023-02-01T19:33:07.478Z,0
2023-02-01T19:36:07.578Z,0
2023-02-01T19:39:07.571Z,0
2023-02-01T19:42:10.886Z,0
2023-02-01T19:45:07.549Z,0
2023-02-01T19:48:07.534Z,0
2023-02-01T19:51:07.552Z,0
2023-02-01T19:54:07.513Z,0
2023-02-01T19:57:07.592Z,0
2023-02-01T20:00:07.836Z,0
2023-02-01T20:03:06.984Z,0
2023-02-01T20:06:06.647Z,0
2023-02-01T20:09:07.108Z,0
2023-02-01T20:12:06.631Z,0
2023-02-01T20:15:06.676Z,0
2023-02-01T20:18:06.674Z,0
2023-02-01T20:21:06.628Z,0
2023-02-01T20:24:06.679Z,0
2023-02-01T20:27:07.471Z,0
2023-02-01T20:30:07.556Z,0
2023-02-01T20:33:07.511Z,0
2023-02-01T20:36:07.562Z,0
2023-02-01T20:39:07.537Z,0
2023-02-01T20:42:07.625Z,0
2023-02-01T20:45:07.572Z,0
2023-02-01T20:48:07.537Z,0
2023-02-01T20:51:07.530Z,0
2023-02-01T20:54:07.561Z,0
2023-02-01T20:57:07.585Z,0
2023-02-01T21:00:07.600Z,0
2023-02-01T21:03:07.484Z,0
2023-02-01T21:06:07.521Z,0
2023-02-01T21:09:07.601Z,0
2023-02-01T21:12:07.660Z,0
2023-02-01T21:15:07.592Z,0
2023-02-01T21:18:07.550Z,0
2023-02-01T21:21:07.480Z,0
2023-02-01T21:24:07.566Z,0
2023-02-01T21:27:07.570Z,0
2023-02-01T21:30:08.649Z,0
2023-02-01T21:33:07.558Z,0
2023-02-01T21:36:07.621Z,0
2023-02-01T21:39:07.517Z,0
2023-02-01T21:42:08.067Z,0
2023-02-01T21:45:07.650Z,0
2023-02-01T21:48:07.618Z,0
2023-02-01T21:51:07.550Z,0
2023-02-01T21:54:07.528Z,0
2023-02-01T21:57:07.498Z,0
2023-02-01T22:00:07.581Z,0
2023-02-01T22:03:07.562Z,0
2023-02-01T22:06:07.600Z,0
2023-02-01T22:09:07.498Z,0
2023-02-01T22:12:07.558Z,0
2023-02-01T22:15:07.584Z,0
2023-02-01T22:18:07.473Z,0
2023-02-01T22:21:07.588Z,0
2023-02-01T22:24:07.523Z,0
2023-02-01T22:27:21.409Z,0
2023-02-01T22:30:07.532Z,0
2023-02-01T22:33:07.493Z,0
2023-02-01T22:36:08.182Z,0
2023-02-01T22:39:07.496Z,0
2023-02-01T22:42:07.497Z,0
2023-02-01T22:45:07.534Z,0
2023-02-01T22:48:07.539Z,0
2023-02-01T22:51:07.607Z,0
2023-02-01T22:54:07.633Z,0
2023-02-01T22:57:09.995Z,0
2023-02-01T23:00:07.865Z,0
2023-02-01T23:03:07.881Z,0
2023-02-01T23:06:07.824Z,0
2023-02-01T23:09:07.531Z,0
2023-02-01T23:12:07.562Z,0
2023-02-01T23:15:07.548Z,0
2023-02-01T23:18:07.438Z,0
2023-02-01T23:21:07.455Z,0
2023-02-01T23:24:07.472Z,0
2023-02-01T23:27:07.565Z,0
2023-02-01T23:30:07.479Z,0
2023-02-01T23:33:07.449Z,0
2023-02-01T23:36:07.441Z,0
2023-02-01T23:39:07.561Z,0
2023-02-01T23:42:07.489Z,0
2023-02-01T23:45:07.531Z,0
2023-02-01T23:48:07.460Z,0
2023-02-01T23:51:07.520Z,0
2023-02-01T23:54:07.485Z,0
2023-02-01T23:57:07.497Z,0
